Talbert, Kentucky
Current Conditions -  °F | °C
As of 5:53 PM on Friday 19 Dec 2014 (Local Time) from KJKL Reporting Station
Clear Clear  
Wind Chill: 27°   Ceiling: Unl
Heat Index: 32°   Visibility: 10mi
Dew Point: 22°   Wind: 5mph
Humidity: 66%   Direction: 20°NNE
Pressure: 30.23"   Gusts: NA
Location:  37.42°N, 83.46°W
Report Text: KJKL 192253Z AUTO 02004KT 10SM CLR 00/M06 A3023 RMK AO2 SLP249 T00001056
Loading
Personal Weather Stations






























Interactive Weather Map New forecast layout! Learn more

10-Day Weather Forecast

Advertisements
Track Severe Weather on mobile